Terminal Aerodrome Forecast
Issued by NWS Corpus Christi, TX

Home | Current Version | Previous Version | Text Only | Print | Product List | Glossary On
Versions: 1 2 3 4 5 6 7 8 9 10 11 12 13 14 15 16 17
724
FTUS44 KCRP 271744
TAFCRP
TAF
KCRP 271744Z 2718/2818 16012KT P6SM BKN035
      TEMPO 2719/2720 BKN030
     FM272000 15015G20KT P6SM SCT035
     FM280200 15012KT P6SM BKN015
     FM280800 16010KT 6SM BR OVC010
      TEMPO 2810/2813 5SM BR BKN008
     FM281500 17015G22KT P6SM BKN015
     FM281700 17020G26KT P6SM BKN035=

USA.gov is the U.S. government's official web portal to all federal, state and local government web resources and services.